Time;durP1;ratioP1;P1;durP2;ratioP2;P2;SDS_P1;SDS_P2;PMS_P1;PMS_P2;Temp;Humidity;BMP_temperature;BMP_pressure;BME280_temperature;BME280_humidity;BME280_pressure;Samples;Min_cycle;Max_cycle;Signal;HPM_P1;HPM_P2
2022/06/03 00:02:36;;;;;;;11.07;5.55;;;;;;;18.55;100.00;97686.53;5047278;28;20385;-78
2022/06/03 00:05:26;;;;;;;14.23;5.97;;;;;;;18.58;100.00;97678.97;5052480;28;20056;-78
2022/06/03 00:08:07;;;;;;;12.05;6.03;;;;;;;18.52;100.00;97684.94;5051449;28;20432;-76
2022/06/03 00:11:02;;;;;;;20.75;6.03;;;;;;;18.48;100.00;97683.50;5052818;28;20029;-77
2022/06/03 00:13:39;;;;;;;17.08;6.28;;;;;;;18.41;100.00;97687.75;5027153;28;20037;-77
2022/06/03 00:16:32;;;;;;;10.88;6.50;;;;;;;18.45;100.00;97683.78;5051294;28;20025;-78
2022/06/03 00:19:21;;;;;;;11.52;6.25;;;;;;;18.49;100.00;97693.34;5035745;28;20040;-77
2022/06/03 00:22:06;;;;;;;12.00;6.70;;;;;;;18.41;100.00;97690.47;5035575;28;20035;-77
2022/06/03 00:24:46;;;;;;;13.20;6.10;;;;;;;18.36;100.00;97690.88;5053570;28;20028;-77
2022/06/03 00:27:36;;;;;;;13.55;6.65;;;;;;;18.41;100.00;97695.88;5024271;28;20489;-77
2022/06/03 00:30:27;;;;;;;12.23;5.95;;;;;;;18.40;100.00;97695.03;5050809;28;20580;-76
2022/06/03 00:33:07;;;;;;;14.10;5.95;;;;;;;18.40;100.00;97697.72;5042365;28;20415;-78
2022/06/03 00:35:53;;;;;;;11.77;5.80;;;;;;;18.35;100.00;97697.31;5035741;28;20017;-77
2022/06/03 00:38:43;;;;;;;17.95;6.97;;;;;;;18.35;100.00;97688.31;5044486;28;20473;-77
2022/06/03 00:41:21;;;;;;;17.98;7.05;;;;;;;18.28;100.00;97690.72;5051795;28;20116;-77
2022/06/03 00:43:57;;;;;;;12.85;6.38;;;;;;;18.24;100.00;97691.16;5035519;28;20036;-77
2022/06/03 00:46:43;;;;;;;14.70;6.00;;;;;;;18.23;100.00;97698.41;5027267;28;20485;-77
2022/06/03 00:49:45;;;;;;;11.98;6.28;;;;;;;18.22;100.00;97693.13;5051943;28;20484;-76
2022/06/03 00:52:36;;;;;;;19.23;6.80;;;;;;;18.20;100.00;97695.13;5031746;28;20037;-77
2022/06/03 00:55:25;;;;;;;15.15;6.70;;;;;;;18.16;100.00;97699.97;5049433;28;20059;-76
2022/06/03 00:58:11;;;;;;;15.88;6.32;;;;;;;18.08;100.00;97690.81;5050497;28;20045;-77
2022/06/03 01:00:58;;;;;;;18.42;7.05;;;;;;;18.12;100.00;97706.63;5044489;28;20035;-76
2022/06/03 01:04:02;;;;;;;13.65;6.80;;;;;;;18.08;100.00;97698.94;5051648;28;20029;-77
2022/06/03 01:06:54;;;;;;;16.45;7.53;;;;;;;18.11;100.00;97695.97;5043612;28;20043;-77
2022/06/03 01:09:50;;;;;;;17.38;7.20;;;;;;;18.13;100.00;97691.25;5034805;28;20025;-78
2022/06/03 01:13:06;;;;;;;16.85;6.88;;;;;;;18.11;100.00;97690.53;5051694;28;20035;-77
2022/06/03 01:15:32;;;;;;;14.23;6.63;;;;;;;18.05;100.00;97689.25;5013259;28;20048;-77
2022/06/03 01:18:16;;;;;;;12.88;6.43;;;;;;;18.04;100.00;97683.97;4998314;28;20034;-78
2022/06/03 01:20:45;;;;;;;14.15;6.53;;;;;;;18.03;100.00;97682.22;5025918;28;20062;-77
2022/06/03 01:23:38;;;;;;;9.95;6.15;;;;;;;17.95;100.00;97679.38;5051142;28;20037;-78
2022/06/03 01:26:31;;;;;;;11.02;6.30;;;;;;;17.96;100.00;97676.53;5050823;28;20021;-78
2022/06/03 01:29:38;;;;;;;16.02;6.03;;;;;;;17.87;100.00;97677.38;5034470;28;20131;-77
2022/06/03 01:32:10;;;;;;;15.73;6.13;;;;;;;17.80;100.00;97676.19;4959847;28;20063;-77
2022/06/03 01:35:07;;;;;;;12.43;6.10;;;;;;;17.74;100.00;97677.59;5033638;28;20123;-77
2022/06/03 01:37:36;;;;;;;12.27;6.15;;;;;;;17.73;100.00;97675.00;5009432;28;20065;-78
2022/06/03 01:40:04;;;;;;;16.45;6.47;;;;;;;17.72;100.00;97678.69;5027100;28;20115;-77
2022/06/03 01:43:04;;;;;;;16.55;6.88;;;;;;;17.66;100.00;97679.25;5050987;28;20589;-77
2022/06/03 01:45:35;;;;;;;12.43;7.03;;;;;;;17.64;100.00;97676.69;5050069;28;20024;-77
2022/06/03 01:48:04;;;;;;;17.70;7.25;;;;;;;17.61;100.00;97676.97;5050889;28;20508;-78
2022/06/03 01:50:52;;;;;;;11.65;7.07;;;;;;;17.63;100.00;97680.38;5050487;28;20497;-77
2022/06/03 01:53:39;;;;;;;13.68;6.70;;;;;;;17.63;100.00;97691.19;5050472;28;20029;-78
2022/06/03 01:56:07;;;;;;;12.85;7.07;;;;;;;17.64;100.00;97684.81;5050475;28;20035;-77
2022/06/03 01:58:56;;;;;;;12.68;6.60;;;;;;;17.65;100.00;97699.19;5051637;28;20029;-77
2022/06/03 02:01:59;;;;;;;14.30;6.32;;;;;;;17.52;100.00;97693.97;5031561;28;20057;-77
2022/06/03 02:05:05;;;;;;;12.15;6.75;;;;;;;17.46;100.00;97690.94;5048494;28;20029;-78
2022/06/03 02:07:50;;;;;;;16.80;6.55;;;;;;;17.39;100.00;97687.91;5004802;28;20048;-78
2022/06/03 02:10:47;;;;;;;17.17;7.32;;;;;;;17.33;100.00;97692.00;5033564;28;20037;-79
2022/06/03 02:13:22;;;;;;;11.60;6.68;;;;;;;17.33;100.00;97683.91;5048753;28;20553;-77
2022/06/03 02:16:15;;;;;;;13.35;7.05;;;;;;;17.40;100.00;97681.53;5050389;28;20489;-77
2022/06/03 02:19:18;;;;;;;12.38;7.30;;;;;;;17.41;100.00;97685.91;5049964;28;20500;-77
2022/06/03 02:22:16;;;;;;;15.68;7.35;;;;;;;17.38;100.00;97678.06;5042124;28;20032;-78
2022/06/03 02:25:00;;;;;;;16.90;7.28;;;;;;;17.35;100.00;97679.19;5034313;28;20064;-78
2022/06/03 02:27:37;;;;;;;13.73;7.00;;;;;;;17.31;100.00;97680.47;5030807;28;20095;-78
2022/06/03 02:30:30;;;;;;;9.93;6.90;;;;;;;17.42;100.00;97698.47;5045564;28;20459;-77
2022/06/03 02:33:26;;;;;;;17.63;9.38;;;;;;;17.45;100.00;97692.78;5034785;28;20045;-77
2022/06/03 02:36:45;;;;;;;11.45;7.38;;;;;;;17.44;100.00;97699.19;5045912;28;20101;-78
2022/06/03 02:39:34;;;;;;;21.55;8.20;;;;;;;17.45;100.00;97709.00;5068119;28;20032;-78
2022/06/03 02:42:24;;;;;;;19.70;8.10;;;;;;;17.40;100.00;97702.28;5065327;28;20558;-77
2022/06/03 02:45:16;;;;;;;27.38;8.23;;;;;;;17.35;100.00;97703.53;5055151;28;20403;-78
2022/06/03 02:48:12;;;;;;;22.70;7.85;;;;;;;17.34;100.00;97706.41;5085142;28;20041;-78
2022/06/03 02:51:09;;;;;;;26.83;7.65;;;;;;;17.33;100.00;97718.19;5061683;28;20028;-78
2022/06/03 02:53:59;;;;;;;14.25;6.15;;;;;;;17.38;100.00;97715.94;5060278;28;20396;-78
2022/06/03 02:56:36;;;;;;;15.52;6.68;;;;;;;17.32;100.00;97719.16;5064948;28;20488;-78
2022/06/03 02:59:20;;;;;;;15.25;7.25;;;;;;;17.32;100.00;97714.63;5064605;28;20145;-78
2022/06/03 03:02:20;;;;;;;12.43;7.00;;;;;;;17.23;100.00;97722.66;5068002;28;20024;-77
2022/06/03 03:05:12;;;;;;;22.20;7.60;;;;;;;17.18;100.00;97706.84;5061901;28;20028;-78
2022/06/03 03:08:03;;;;;;;14.73;7.60;;;;;;;17.28;100.00;97717.75;5038468;28;20040;-76
2022/06/03 03:11:06;;;;;;;14.43;7.35;;;;;;;17.31;100.00;97715.63;5070188;28;20031;-77
2022/06/03 03:13:50;;;;;;;;;;;;;;;17.34;100.00;97709.09;5083255;28;20032;-77
2022/06/03 03:16:22;;;;;;;16.45;6.53;;;;;;;17.34;100.00;97706.41;5064525;28;20294;-77
2022/06/03 03:19:15;;;;;;;20.70;7.20;;;;;;;17.37;100.00;97699.84;5062483;28;20236;-77
2022/06/03 03:21:58;;;;;;;28.67;8.48;;;;;;;17.41;100.00;97723.78;5050014;28;20496;-77
2022/06/03 03:24:30;;;;;;;20.10;7.53;;;;;;;17.47;100.00;97723.28;5064071;28;20130;-77
2022/06/03 03:27:33;;;;;;;11.50;6.67;;;;;;;17.52;100.00;97718.31;5064276;28;20529;-77
2022/06/03 03:30:17;;;;;;;;;;;;;;;17.66;100.00;97717.13;4984533;28;20423;-78
2022/06/03 03:32:57;;;;;;;14.52;7.72;;;;;;;17.74;100.00;97717.31;5063929;28;19923;-78
2022/06/03 03:35:54;;;;;;;21.05;7.25;;;;;;;17.91;100.00;97721.22;5066879;28;20114;-78
2022/06/03 03:38:53;;;;;;;8.48;6.60;;;;;;;18.04;100.00;97725.44;5052932;28;20051;-78
2022/06/03 03:42:03;;;;;;;17.73;7.20;;;;;;;18.12;100.00;97728.28;5052858;28;20056;-78
2022/06/03 03:44:38;;;;;;;17.08;6.88;;;;;;;18.25;100.00;97731.63;5049268;28;20066;-78
2022/06/03 03:47:35;;;;;;;19.35;7.63;;;;;;;18.32;100.00;97735.50;5072362;28;20037;-78
2022/06/03 03:50:25;;;;;;;20.17;7.53;;;;;;;18.30;100.00;97733.94;5070604;28;20067;-78
2022/06/03 03:53:11;;;;;;;12.70;7.68;;;;;;;18.35;100.00;97737.06;5040725;28;20029;-77
2022/06/03 03:55:59;;;;;;;11.55;8.18;;;;;;;18.50;100.00;97745.69;5065424;28;20040;-78
2022/06/03 03:58:46;;;;;;;26.65;8.60;;;;;;;18.52;100.00;97749.97;5043335;28;20573;-78
2022/06/03 04:01:21;;;;;;;25.95;8.07;;;;;;;18.59;100.00;97756.56;5052311;28;20115;-77
2022/06/03 04:03:59;;;;;;;18.48;7.70;;;;;;;18.68;100.00;97771.09;5057203;28;20033;-77
2022/06/03 04:06:25;;;;;;;20.75;8.95;;;;;;;18.86;100.00;97764.88;5051271;28;20060;-77
2022/06/03 04:09:24;;;;;;;23.90;7.57;;;;;;;19.18;100.00;97763.75;5058902;28;20121;-77
2022/06/03 04:11:55;;;;;;;25.23;7.68;;;;;;;19.35;100.00;97755.72;5071465;28;20486;-77
2022/06/03 04:15:05;;;;;;;22.00;8.30;;;;;;;19.56;100.00;97752.03;5064846;28;20025;-77
2022/06/03 04:17:58;;;;;;;29.60;8.13;;;;;;;19.88;100.00;97763.38;5058629;28;20545;-77
2022/06/03 04:20:24;;;;;;;28.45;7.82;;;;;;;20.14;100.00;97766.31;5057246;28;20024;-77
2022/06/03 04:23:47;;;;;;;15.77;7.30;;;;;;;20.19;100.00;97769.41;5058870;28;20492;-78
2022/06/03 04:26:36;;;;;;;32.30;7.93;;;;;;;20.40;100.00;97775.50;4967743;28;20041;-78
2022/06/03 04:29:34;;;;;;;38.33;20.00;;;;;;;20.60;100.00;97782.56;4961257;28;20122;-77
2022/06/03 04:32:37;;;;;;;23.45;7.90;;;;;;;20.51;100.00;97789.78;5062219;28;20031;-78
2022/06/03 04:35:24;;;;;;;30.38;8.13;;;;;;;20.64;100.00;97783.94;5058407;28;20033;-77
2022/06/03 04:37:49;;;;;;;21.63;7.88;;;;;;;20.79;100.00;97787.91;5057671;28;20086;-78
2022/06/03 04:40:33;;;;;;;24.58;7.97;;;;;;;21.26;100.00;97793.16;5068673;28;20453;-80
2022/06/03 04:43:36;;;;;;;16.33;7.38;;;;;;;21.67;100.00;97791.66;5074192;28;20489;-78
2022/06/03 04:46:43;;;;;;;14.60;7.03;;;;;;;22.38;98.63;97797.78;5059444;28;20036;-78
2022/06/03 04:49:24;;;;;;;17.15;8.10;;;;;;;23.19;89.73;97799.00;5040604;28;21870;-83
2022/06/03 04:52:04;;;;;;;39.38;11.02;;;;;;;23.78;85.40;97807.97;5065481;28;20413;-80
2022/06/03 04:54:38;;;;;;;29.27;9.48;;;;;;;23.95;82.21;97805.03;5044073;28;20427;-77
2022/06/03 04:57:07;;;;;;;23.20;8.90;;;;;;;23.99;82.02;97814.59;5068104;28;20026;-79
2022/06/03 04:59:38;;;;;;;20.90;9.05;;;;;;;24.75;78.42;97816.84;5079910;28;20020;-78
2022/06/03 05:02:16;;;;;;;19.50;10.00;;;;;;;25.65;71.42;97818.09;5068411;28;20069;-78
2022/06/03 05:05:19;;;;;;;15.60;7.90;;;;;;;26.00;70.71;97828.44;5068255;28;20262;-77
2022/06/03 05:08:18;;;;;;;17.98;8.70;;;;;;;27.21;64.24;97818.91;5047687;28;20177;-79
2022/06/03 05:11:14;;;;;;;28.38;10.35;;;;;;;27.78;61.35;97832.66;5059487;28;20063;-79
2022/06/03 05:13:55;;;;;;;17.42;7.88;;;;;;;28.09;59.72;97826.00;5068098;28;20031;-78
2022/06/03 05:16:27;;;;;;;13.57;7.55;;;;;;;27.86;59.60;97837.19;5063806;28;20190;-80
2022/06/03 05:18:54;;;;;;;16.70;9.18;;;;;;;27.94;59.60;97848.06;5061274;28;20483;-79
2022/06/03 05:21:36;;;;;;;19.63;7.22;;;;;;;29.04;55.72;97838.13;5069964;28;20032;-78
2022/06/03 05:24:24;;;;;;;17.10;10.40;;;;;;;28.40;55.84;97843.00;5075139;28;20027;-79
2022/06/03 05:27:17;;;;;;;19.48;9.25;;;;;;;28.65;55.65;97836.00;5067166;28;20040;-79
2022/06/03 05:30:18;;;;;;;15.82;7.47;;;;;;;29.28;53.73;97837.69;5064137;28;20028;-78
2022/06/03 05:32:58;;;;;;;23.30;8.52;;;;;;;30.40;51.53;97843.47;5039681;28;20102;-79
2022/06/03 05:35:35;;;;;;;16.38;7.57;;;;;;;31.15;48.51;97829.97;5050657;28;20028;-79
2022/06/03 05:38:17;;;;;;;21.70;11.40;;;;;;;31.93;46.93;97829.81;5050730;28;20033;-78
2022/06/03 05:40:44;;;;;;;23.23;8.60;;;;;;;31.50;46.58;97821.34;5031115;28;20485;-79
2022/06/03 05:43:13;;;;;;;17.45;6.70;;;;;;;31.83;46.03;97826.69;5031852;28;20025;-79
2022/06/03 05:45:55;;;;;;;16.15;7.35;;;;;;;32.29;44.98;97820.84;5051208;28;20102;-80
2022/06/03 05:48:47;;;;;;;;;;;;;;;32.67;44.04;97822.44;5051164;28;20049;-80
2022/06/03 05:51:46;;;;;;;23.23;7.30;;;;;;;32.01;45.82;97822.09;5047552;28;19960;-81
2022/06/03 05:54:28;;;;;;;18.25;8.55;;;;;;;33.28;43.29;97818.81;5050203;28;20396;-79
2022/06/03 05:57:15;;;;;;;22.30;9.35;;;;;;;33.34;43.09;97817.88;5050823;28;20032;-79
2022/06/03 06:00:00;;;;;;;26.67;11.15;;;;;;;33.49;43.28;97814.72;5033786;28;20040;-80
2022/06/03 06:02:42;;;;;;;28.48;11.05;;;;;;;34.46;40.68;97805.13;5050150;28;20049;-80
2022/06/03 06:05:12;;;;;;;22.77;13.73;;;;;;;33.13;43.04;97813.63;5050345;28;20428;-81
2022/06/03 06:07:53;;;;;;;22.83;8.95;;;;;;;33.72;42.13;97815.69;5050424;28;20063;-80
2022/06/03 06:10:31;;;;;;;14.85;8.13;;;;;;;34.29;41.39;97814.22;5050091;28;20025;-82
2022/06/03 06:13:23;;;;;;;17.63;8.90;;;;;;;33.87;41.20;97811.66;5050122;28;20036;-79
2022/06/03 06:16:03;;;;;;;12.05;7.18;;;;;;;33.74;41.74;97818.25;5051773;28;20035;-79
2022/06/03 06:18:36;;;;;;;18.35;8.95;;;;;;;34.57;40.40;97813.50;5049912;28;20712;-80
2022/06/03 06:21:12;;;;;;;20.02;8.63;;;;;;;35.19;39.46;97805.56;5050079;28;20037;-78
2022/06/03 06:23:40;;;;;;;15.27;8.07;;;;;;;35.28;39.01;97804.06;5048925;28;20040;-80
2022/06/03 06:26:12;;;;;;;23.02;7.50;;;;;;;36.39;37.51;97789.56;5033324;28;20404;-80
2022/06/03 06:28:43;;;;;;;16.90;7.30;;;;;;;36.30;37.32;97799.44;5051551;28;20025;-80
2022/06/03 06:31:12;;;;;;;18.23;7.55;;;;;;;34.98;39.14;97797.81;5051463;28;20107;-81
2022/06/03 06:34:03;;;;;;;17.83;10.52;;;;;;;35.65;38.31;97799.88;5066445;28;20419;-81
2022/06/03 06:36:38;;;;;;;14.02;6.03;;;;;;;36.81;36.61;97798.34;5047574;28;20118;-81
2022/06/03 06:39:18;;;;;;;18.17;10.00;;;;;;;36.39;36.86;97790.38;5061322;28;20063;-80
2022/06/03 06:41:52;;;;;;;10.65;6.20;;;;;;;34.72;38.97;97799.16;5079646;28;20403;-81
2022/06/03 06:44:45;;;;;;;9.32;5.70;;;;;;;34.66;39.11;97789.00;5068841;28;20031;-81
2022/06/03 06:47:26;;;;;;;10.23;5.57;;;;;;;36.59;36.88;97792.69;5078373;28;20102;-80
2022/06/03 06:50:03;;;;;;;14.38;5.85;;;;;;;38.03;34.74;97789.63;5026486;28;20098;-80
2022/06/03 06:53:00;;;;;;;13.25;5.40;;;;;;;38.67;33.92;97785.72;5060142;28;20116;-81
2022/06/03 06:55:47;;;;;;;24.90;6.63;;;;;;;39.26;32.61;97780.84;5047139;28;20484;-80
2022/06/03 06:58:52;;;;;;;12.50;4.95;;;;;;;39.39;32.06;97782.31;5045459;28;20037;-80
2022/06/03 07:01:26;;;;;;;15.63;6.15;;;;;;;39.71;31.53;97780.25;5037940;28;20068;-81
2022/06/03 07:04:23;;;;;;;20.55;5.25;;;;;;;39.34;32.06;97773.91;5042728;28;20032;-80
2022/06/03 07:07:21;;;;;;;10.43;5.47;;;;;;;39.73;31.31;97778.00;5025214;28;20044;-81
2022/06/03 07:09:58;;;;;;;10.43;5.30;;;;;;;38.07;32.89;97774.00;5043508;28;20040;-79
2022/06/03 07:12:56;;;;;;;10.55;5.40;;;;;;;38.39;33.56;97781.31;5061615;28;20091;-81
2022/06/03 07:15:25;;;;;;;16.40;5.88;;;;;;;38.69;33.12;97783.53;5049802;28;20533;-80
2022/06/03 07:21:08;;;;;;;18.85;7.25;;;;;;;39.78;31.48;97769.59;5089797;28;20554;-80
2022/06/03 07:23:56;;;;;;;10.65;5.93;;;;;;;40.84;30.17;97772.50;5064163;28;20028;-81
2022/06/03 07:26:37;;;;;;;15.07;6.38;;;;;;;41.61;29.22;97759.94;5051296;28;20428;-81
2022/06/03 07:29:17;;;;;;;;;;;;;;;40.59;30.46;97766.91;5051365;28;20518;-79
2022/06/03 07:31:49;;;;;;;23.42;6.82;;;;;;;40.80;30.15;97767.72;5087508;28;19973;-80
2022/06/03 07:34:26;;;;;;;13.60;5.38;;;;;;;39.95;30.18;97767.41;5049700;28;20470;-80
2022/06/03 07:37:09;;;;;;;13.48;6.05;;;;;;;39.82;30.88;97765.13;5031518;28;20108;-79
2022/06/03 07:39:44;;;;;;;8.48;5.47;;;;;;;37.27;34.07;97774.72;5032401;28;20040;-80
2022/06/03 07:42:33;;;;;;;13.32;6.50;;;;;;;35.84;35.73;97779.06;5043578;28;20512;-80
2022/06/03 07:45:03;;;;;;;15.57;5.88;;;;;;;36.51;36.36;97793.09;5031712;28;20415;-79
2022/06/03 07:47:29;;;;;;;8.77;5.30;;;;;;;36.67;35.68;97792.25;5049155;28;20500;-80
2022/06/03 07:50:00;;;;;;;15.57;6.00;;;;;;;36.70;35.65;97794.53;5032705;28;20032;-80
2022/06/03 07:52:32;;;;;;;10.35;5.43;;;;;;;37.27;34.83;97791.47;5032696;28;20485;-80
2022/06/03 07:54:59;;;;;;;10.07;5.32;;;;;;;38.49;33.08;97788.97;5049319;28;20029;-80
2022/06/03 07:57:27;;;;;;;11.15;6.00;;;;;;;39.06;32.78;97789.13;5033009;28;20040;-79
2022/06/03 08:00:01;;;;;;;8.63;5.55;;;;;;;38.67;33.61;97791.34;5049005;28;20063;-79
2022/06/03 08:02:27;;;;;;;11.82;5.90;;;;;;;39.50;32.76;97806.47;5049181;28;20507;-80
2022/06/03 08:05:13;;;;;;;31.77;6.88;;;;;;;37.24;35.36;97804.00;5031893;28;20037;-80
2022/06/03 08:13:15;;;;;;;11.93;5.38;;;;;;;39.46;33.30;97808.97;5052730;28;20051;-79
2022/06/03 08:15:45;;;;;;;13.68;5.35;;;;;;;38.70;33.67;97810.38;5035694;28;20017;-79
2022/06/03 08:18:15;;;;;;;18.90;5.45;;;;;;;38.22;34.25;97811.34;5052617;28;20277;-79
2022/06/03 08:20:47;;;;;;;9.27;5.25;;;;;;;38.34;34.44;97808.38;5035070;28;20107;-80
2022/06/03 08:23:15;;;;;;;9.27;5.13;;;;;;;39.18;33.53;97814.09;5029285;28;20488;-80
2022/06/03 08:25:43;;;;;;;18.58;5.22;;;;;;;39.84;33.15;97804.91;5052110;28;20115;-80
2022/06/03 08:28:12;;;;;;;7.78;5.00;;;;;;;38.82;34.19;97808.28;5035547;28;20106;-80
2022/06/03 08:30:38;;;;;;;15.95;6.65;;;;;;;39.22;32.79;97792.84;5035654;28;20070;-80
2022/06/03 08:33:06;;;;;;;12.63;5.85;;;;;;;40.59;31.24;97804.25;5064879;28;20051;-80
2022/06/03 08:35:34;;;;;;;12.88;5.88;;;;;;;39.78;31.82;97805.19;5052023;28;20056;-80
2022/06/03 08:38:07;;;;;;;7.28;5.30;;;;;;;39.47;33.17;97812.63;5050387;28;20117;-80
2022/06/03 08:40:57;;;;;;;30.02;20.20;;;;;;;39.11;32.97;97799.50;5041515;28;20056;-79
2022/06/03 08:43:30;;;;;;;16.25;12.77;;;;;;;38.62;34.42;97813.69;5055167;28;20024;-78
2022/06/03 08:46:04;;;;;;;8.73;4.80;;;;;;;39.38;32.75;97797.41;5074175;28;20112;-85
2022/06/03 08:48:44;;;;;;;11.77;6.30;;;;;;;39.45;34.01;97792.41;5052753;28;20024;-79
2022/06/03 08:51:25;;;;;;;17.63;8.70;;;;;;;40.67;32.23;97805.63;5055886;28;20406;-80
2022/06/03 08:54:09;;;;;;;15.50;5.60;;;;;;;41.51;31.57;97802.13;5036213;28;20116;-82
2022/06/03 08:56:38;;;;;;;10.13;5.15;;;;;;;41.21;30.65;97805.03;5066162;28;20174;-80
2022/06/03 08:59:13;;;;;;;9.00;5.22;;;;;;;39.75;32.61;97809.38;5044774;28;20138;-79
2022/06/03 09:02:02;;;;;;;11.93;5.25;;;;;;;40.24;32.55;97806.16;5058580;28;20128;-80
2022/06/03 09:04:53;;;;;;;15.68;5.47;;;;;;;40.53;31.62;97808.19;5075177;28;20028;-79
2022/06/03 09:07:38;;;;;;;49.53;7.07;;;;;;;40.32;31.66;97792.44;5036215;28;20044;-79
2022/06/03 09:10:19;;;;;;;15.05;5.82;;;;;;;39.29;34.01;97811.09;5047392;28;20504;-78
2022/06/03 09:12:53;;;;;;;16.40;5.22;;;;;;;39.79;32.20;97796.50;5066854;28;20462;-79
2022/06/03 09:15:25;;;;;;;11.35;5.60;;;;;;;41.18;31.01;97805.59;5063154;28;20510;-79
2022/06/03 09:17:51;;;;;;;;;;;;;;;41.30;29.78;97800.50;5046290;28;20483;-79
2022/06/03 09:20:21;;;;;;;21.13;4.97;;;;;;;41.02;28.66;97780.34;5071087;28;19912;-79
2022/06/03 09:22:48;;;;;;;7.05;4.47;;;;;;;40.10;30.13;97794.63;5053189;28;20132;-79
2022/06/03 09:25:15;;;;;;;13.07;4.88;;;;;;;38.02;33.04;97802.78;5042559;28;20027;-79
2022/06/03 09:27:42;;;;;;;9.90;5.20;;;;;;;39.57;32.12;97807.03;5045576;28;20040;-79
2022/06/03 09:30:09;;;;;;;20.60;5.57;;;;;;;40.86;30.76;97803.94;5040390;28;20036;-79
2022/06/03 09:32:41;;;;;;;12.23;5.13;;;;;;;41.31;29.32;97793.75;5057958;28;20106;-79
2022/06/03 09:35:09;;;;;;;15.00;5.10;;;;;;;40.10;30.24;97794.63;5034254;28;20123;-78
2022/06/03 09:37:41;;;;;;;36.60;9.73;;;;;;;38.29;33.51;97806.41;5031435;28;20022;-78
2022/06/03 09:40:12;;;;;;;10.35;4.70;;;;;;;37.57;32.72;97803.06;5034527;28;20579;-78
2022/06/03 09:42:48;;;;;;;8.00;5.00;;;;;;;39.19;32.26;97805.44;5035452;28;20425;-88
2022/06/03 09:45:19;;;;;;;8.80;6.00;;;;;;;40.71;29.99;97792.72;5038413;28;20025;-90
2022/06/03 09:47:45;;;;;;;;;;;;;;;41.99;28.37;97795.75;5041017;28;20472;-90
2022/06/03 09:50:14;;;;;;;12.88;5.72;;;;;;;41.88;28.86;97794.09;5038530;28;19913;-88
2022/06/03 09:52:40;;;;;;;17.08;5.68;;;;;;;42.46;28.23;97797.94;5039435;28;20044;-90
2022/06/03 09:55:23;;;;;;;14.10;5.90;;;;;;;42.04;28.14;97787.28;5058898;28;20021;-90
2022/06/03 09:57:48;;;;;;;19.25;7.95;;;;;;;42.67;28.54;97793.84;5057847;28;20029;-91
2022/06/03 10:00:24;;;;;;;13.77;5.55;;;;;;;42.18;28.90;97792.28;5040547;28;20039;-91
2022/06/03 10:02:52;;;;;;;7.65;4.78;;;;;;;42.22;28.70;97773.66;5040861;28;20028;-91
2022/06/03 10:05:19;;;;;;;17.95;5.35;;;;;;;42.20;28.78;97792.81;5042177;28;20029;-91
2022/06/03 10:07:47;;;;;;;13.80;4.72;;;;;;;41.89;29.01;97787.38;5037743;28;20043;-88
2022/06/03 10:13:01;;;;;;;11.45;5.85;;;;;;;42.78;28.03;97793.78;5053336;28;20028;-88
2022/06/03 10:15:38;;;;;;;10.38;5.13;;;;;;;42.89;28.03;97784.91;5036654;28;20404;-89
2022/06/03 10:18:20;;;;;;;11.38;5.80;;;;;;;43.35;27.59;97799.38;5054401;28;20052;-89
2022/06/03 10:20:49;;;;;;;7.63;4.93;;;;;;;41.38;28.87;97783.09;5050756;28;20484;-88
2022/06/03 10:23:19;;;;;;;9.95;5.22;;;;;;;41.95;29.41;97794.63;5039937;28;20117;-89
2022/06/03 10:25:46;;;;;;;13.93;5.13;;;;;;;41.62;29.21;97795.34;5042715;28;20025;-90
2022/06/03 10:28:15;;;;;;;12.13;5.25;;;;;;;41.09;29.91;97800.56;5040904;28;20056;-89
2022/06/03 10:30:45;;;;;;;8.23;5.10;;;;;;;41.11;29.66;97787.06;5056327;28;20025;-90
2022/06/03 10:33:21;;;;;;;8.07;4.78;;;;;;;40.12;31.26;97788.78;5042304;28;20527;-86
2022/06/03 10:35:50;;;;;;;11.38;5.10;;;;;;;41.23;29.57;97785.91;5047665;28;20107;-88
2022/06/03 10:38:20;;;;;;;8.88;5.00;;;;;;;41.71;29.11;97781.53;5049360;28;20029;-88
2022/06/03 10:40:48;;;;;;;12.93;5.45;;;;;;;42.82;28.07;97775.16;5049093;28;20024;-89
2022/06/03 10:43:24;;;;;;;12.60;5.25;;;;;;;44.11;26.53;97768.25;5061806;28;20484;-89
2022/06/03 10:46:13;;;;;;;10.40;5.03;;;;;;;44.18;26.87;97757.41;5049001;28;20031;-89
2022/06/03 10:48:39;;;;;;;12.50;5.30;;;;;;;43.22;27.71;97763.47;5056254;28;20028;-89
2022/06/03 11:02:43;;;;;;;16.23;5.13;;;;;;;41.88;28.47;97771.63;5082760;28;20039;-89
2022/06/03 11:05:20;;;;;;;18.23;5.63;;;;;;;41.09;29.54;97757.59;5043202;28;20056;-89
2022/06/03 11:07:56;;;;;;;16.52;5.43;;;;;;;40.27;30.35;97760.75;5040593;28;20032;-89
2022/06/03 11:10:27;;;;;;;17.20;4.97;;;;;;;40.73;29.80;97745.59;5064392;28;20040;-89
2022/06/03 11:13:00;;;;;;;13.95;5.35;;;;;;;38.86;32.02;97753.44;5070209;28;20023;-88
2022/06/03 11:15:33;;;;;;;12.60;5.38;;;;;;;37.97;33.61;97758.00;5047440;28;20068;-86
2022/06/03 11:18:20;;;;;;;21.25;6.18;;;;;;;39.01;32.34;97747.94;5068193;28;20044;-87
2022/06/03 11:20:48;;;;;;;14.50;5.38;;;;;;;39.75;31.72;97753.31;5038144;28;20609;-85
2022/06/03 11:23:14;;;;;;;17.02;5.55;;;;;;;40.68;29.71;97737.16;5063928;28;20020;-85
2022/06/03 11:25:52;;;;;;;17.05;5.28;;;;;;;40.86;29.70;97725.31;5059448;28;20095;-85
2022/06/03 11:28:22;;;;;;;14.93;7.72;;;;;;;41.74;28.86;97725.56;5066737;28;20074;-84
2022/06/03 11:30:51;;;;;;;18.23;6.65;;;;;;;42.23;28.49;97722.75;5055988;28;20123;-86
2022/06/03 11:33:26;;;;;;;11.35;5.20;;;;;;;42.27;28.34;97718.19;5050462;28;20061;-86
2022/06/03 11:36:02;;;;;;;12.82;5.35;;;;;;;41.54;29.11;97715.28;5034080;28;20025;-86
2022/06/03 11:38:45;;;;;;;11.50;5.32;;;;;;;41.92;29.11;97715.63;5034296;28;20025;-85
2022/06/03 11:41:17;;;;;;;21.05;5.43;;;;;;;42.43;28.20;97704.81;5053623;28;20496;-85
2022/06/03 11:43:52;;;;;;;13.88;5.40;;;;;;;40.68;29.15;97697.88;5054872;28;20024;-84
2022/06/03 11:46:24;;;;;;;11.80;5.72;;;;;;;40.72;30.20;97701.78;5054735;28;20025;-83
2022/06/03 11:48:52;;;;;;;9.70;5.47;;;;;;;40.32;30.80;97699.88;5037127;28;20025;-85
2022/06/03 11:51:18;;;;;;;10.55;5.32;;;;;;;40.47;30.03;97697.03;5054350;28;20033;-85
2022/06/03 11:53:49;;;;;;;13.25;5.20;;;;;;;39.49;32.42;97689.91;5037471;28;20091;-84
2022/06/03 11:56:18;;;;;;;15.63;5.85;;;;;;;37.67;33.52;97693.41;5036109;28;20105;-85
2022/06/03 11:58:54;;;;;;;13.98;5.43;;;;;;;36.59;35.23;97703.47;5054661;28;20029;-84
2022/06/03 12:01:36;;;;;;;7.65;5.57;;;;;;;35.06;37.37;97716.75;5056513;28;20044;-85
2022/06/03 12:04:10;;;;;;;13.52;6.50;;;;;;;34.19;38.41;97732.53;5038095;28;20524;-84
2022/06/03 12:06:54;;;;;;;24.73;8.98;;;;;;;34.08;39.56;97747.22;5038001;28;20048;-84
2022/06/03 12:09:45;;;;;;;17.90;6.70;;;;;;;34.20;39.31;97742.56;5055051;28;20098;-86
2022/06/03 12:15:32;;;;;;;9.50;5.00;;;;;;;33.13;38.68;97743.50;5050351;28;20106;-83
2022/06/03 12:18:37;;;;;;;19.17;12.07;;;;;;;32.65;38.71;97740.59;5045664;28;20118;-85
2022/06/03 12:21:08;;;;;;;12.52;6.63;;;;;;;32.44;39.62;97750.19;5045600;28;20057;-83
2022/06/03 12:23:37;;;;;;;13.32;6.20;;;;;;;32.66;39.27;97745.94;5037476;28;20063;-84
2022/06/03 12:26:22;;;;;;;18.42;6.50;;;;;;;34.76;36.00;97740.03;5054430;28;20025;-86
2022/06/03 12:28:50;;;;;;;17.27;5.40;;;;;;;36.18;33.52;97735.41;5055349;28;20045;-83
2022/06/03 12:31:19;;;;;;;10.20;4.78;;;;;;;38.28;30.25;97733.94;5037747;28;20467;-83
2022/06/03 12:34:09;;;;;;;12.88;4.80;;;;;;;39.88;28.50;97721.97;5053977;28;20053;-84
2022/06/03 12:36:38;;;;;;;6.40;3.90;;;;;;;39.71;28.53;97718.59;5054831;28;20025;-85
2022/06/03 12:39:08;;;;;;;7.00;4.50;;;;;;;38.75;27.91;97704.13;5054855;28;20029;-84
2022/06/03 12:41:46;;;;;;;10.15;4.32;;;;;;;39.30;28.59;97705.53;5055312;28;20029;-85
2022/06/03 12:44:40;;;;;;;11.63;5.28;;;;;;;39.98;28.97;97707.13;5051341;28;20150;-83
2022/06/03 12:47:17;;;;;;;15.95;8.43;;;;;;;39.65;28.20;97696.41;5046416;28;20033;-85
2022/06/03 12:49:43;;;;;;;12.48;6.18;;;;;;;40.01;29.62;97715.81;5055359;28;20067;-89
2022/06/03 12:52:21;;;;;;;11.60;5.28;;;;;;;39.77;30.05;97702.63;5054961;28;20459;-86
2022/06/03 12:55:07;;;;;;;11.73;4.85;;;;;;;39.71;30.96;97701.78;5054034;28;20086;-85